createdAt,value
2018-09-20T00:01:04.765Z,3.47
2018-09-20T00:03:34.193Z,3.60
2018-09-20T00:06:04.215Z,3.87
2018-09-20T00:08:33.771Z,3.93
2018-09-20T00:11:03.218Z,3.77
2018-09-20T00:13:32.711Z,3.80
2018-09-20T00:16:02.925Z,3.70
2018-09-20T00:18:32.859Z,3.63
2018-09-20T00:21:02.391Z,3.70
2018-09-20T00:23:31.791Z,3.70
2018-09-20T00:26:01.221Z,3.70
2018-09-20T00:28:30.762Z,3.80
2018-09-20T00:31:00.155Z,3.97
2018-09-20T00:33:29.797Z,4.20
2018-09-20T00:35:59.653Z,4.00
2018-09-20T00:38:29.205Z,3.80
2018-09-20T00:40:58.561Z,3.67
2018-09-20T00:43:28.333Z,4.10
2018-09-20T00:45:57.985Z,3.40
2018-09-20T00:48:27.339Z,4.27
2018-09-20T00:50:57.146Z,3.37
2018-09-20T00:53:26.988Z,3.20
2018-09-20T00:55:56.362Z,4.00
2018-09-20T00:58:25.685Z,4.07
2018-09-20T01:00:54.890Z,3.50
2018-09-20T01:03:24.712Z,3.57
2018-09-20T01:05:54.243Z,3.43
2018-09-20T01:08:23.911Z,3.83
2018-09-20T01:10:53.833Z,3.57
2018-09-20T01:13:23.266Z,3.40
2018-09-20T01:15:52.423Z,3.33
2018-09-20T01:18:21.905Z,3.87
2018-09-20T01:20:51.283Z,3.53
2018-09-20T01:23:20.771Z,4.03
2018-09-20T01:25:50.425Z,3.50
2018-09-20T01:28:19.647Z,4.10
2018-09-20T01:30:49.251Z,3.77
2018-09-20T01:33:19.353Z,3.43
2018-09-20T01:35:48.761Z,3.57
2018-09-20T01:38:18.103Z,2.97
2018-09-20T01:40:47.747Z,3.47
2018-09-20T01:43:17.549Z,3.60
2018-09-20T01:45:47.631Z,4.33
2018-09-20T01:48:17.387Z,3.80
2018-09-20T01:50:47.261Z,3.87
2018-09-20T01:53:17.255Z,3.33
2018-09-20T01:55:47.041Z,3.77
2018-09-20T01:58:16.827Z,3.77
2018-09-20T02:00:46.826Z,3.77
2018-09-20T02:03:16.597Z,3.43
2018-09-20T02:05:45.909Z,3.50
2018-09-20T02:08:15.333Z,3.73
2018-09-20T02:10:45.086Z,3.10
2018-09-20T02:13:14.631Z,3.40
2018-09-20T02:15:44.267Z,3.80
2018-09-20T02:18:14.845Z,3.63
2018-09-20T02:20:44.698Z,3.87
2018-09-20T02:23:14.347Z,3.83
2018-09-20T02:25:43.981Z,3.97
2018-09-20T02:28:14.499Z,3.83
2018-09-20T02:30:44.695Z,3.63
2018-09-20T02:33:14.757Z,4.00
2018-09-20T02:35:44.635Z,4.27
2018-09-20T02:38:14.552Z,3.90
2018-09-20T02:40:44.138Z,3.83
2018-09-20T02:43:14.484Z,3.47
2018-09-20T02:45:44.225Z,4.53
2018-09-20T02:48:14.263Z,4.23
2018-09-20T02:50:44.076Z,3.93
2018-09-20T02:53:14.874Z,4.57
2018-09-20T02:55:44.645Z,3.77
2018-09-20T02:58:14.596Z,4.80
2018-09-20T03:00:44.706Z,3.70
2018-09-20T03:03:14.752Z,4.70
2018-09-20T03:05:44.847Z,4.40
2018-09-20T03:08:14.622Z,4.27
2018-09-20T03:10:44.843Z,4.70
2018-09-20T03:13:14.785Z,4.63
2018-09-20T03:15:44.727Z,4.07
2018-09-20T03:18:14.367Z,4.07
2018-09-20T03:20:44.288Z,4.23
2018-09-20T03:23:13.893Z,4.60
2018-09-20T03:25:43.771Z,4.40
2018-09-20T03:28:13.260Z,4.07
2018-09-20T03:30:42.744Z,4.70
2018-09-20T03:33:12.255Z,4.73
2018-09-20T03:35:42.067Z,4.53
2018-09-20T03:38:11.904Z,4.07
2018-09-20T03:40:42.145Z,4.70
2018-09-20T03:43:12.077Z,4.40
2018-09-20T03:45:41.559Z,4.63
2018-09-20T03:48:11.184Z,4.43
2018-09-20T03:50:40.950Z,4.90
2018-09-20T03:53:10.269Z,4.37
2018-09-20T03:55:39.803Z,5.03
2018-09-20T03:58:09.271Z,4.40
2018-09-20T04:00:38.939Z,5.27
2018-09-20T04:03:08.964Z,4.13
2018-09-20T04:05:38.817Z,4.87
2018-09-20T04:08:08.861Z,4.47
2018-09-20T04:10:38.807Z,4.60
2018-09-20T04:13:08.229Z,4.30
2018-09-20T04:15:37.695Z,4.33
2018-09-20T04:18:07.389Z,4.00
2018-09-20T04:20:37.192Z,5.03
2018-09-20T04:23:06.661Z,4.47
2018-09-20T04:25:36.461Z,4.33
2018-09-20T04:28:06.414Z,4.23
2018-09-20T04:30:36.218Z,4.63
2018-09-20T04:33:06.429Z,4.60
2018-09-20T04:35:35.760Z,4.87
2018-09-20T04:38:05.257Z,5.07
2018-09-20T04:40:35.214Z,5.40
2018-09-20T04:43:04.544Z,4.53
2018-09-20T04:45:33.770Z,4.97
2018-09-20T04:48:03.080Z,5.83
2018-09-20T04:50:32.299Z,4.90
2018-09-20T04:53:01.792Z,6.10
2018-09-20T04:55:30.933Z,4.83
2018-09-20T04:58:00.232Z,5.20
2018-09-20T05:00:29.788Z,4.67
2018-09-20T05:02:59.338Z,5.30
2018-09-20T05:05:29.028Z,5.37
2018-09-20T05:07:59.009Z,4.33
2018-09-20T05:10:29.124Z,5.40
2018-09-20T05:12:59.232Z,4.20
2018-09-20T05:15:29.237Z,4.87
2018-09-20T05:17:59.873Z,5.30
2018-09-20T05:20:30.375Z,5.60
2018-09-20T05:23:01.600Z,5.10
2018-09-20T05:25:32.382Z,5.77
2018-09-20T05:28:03.087Z,5.13
2018-09-20T05:30:33.746Z,5.47
2018-09-20T05:33:05.022Z,5.30
2018-09-20T05:35:35.923Z,5.50
2018-09-20T05:38:06.712Z,5.50
2018-09-20T05:40:37.396Z,5.23
2018-09-20T05:43:07.905Z,5.27
2018-09-20T05:45:38.746Z,5.50
2018-09-20T05:48:08.542Z,5.33
2018-09-20T05:50:38.105Z,5.57
2018-09-20T05:53:07.871Z,5.60
2018-09-20T05:55:38.323Z,5.43
2018-09-20T05:58:09.036Z,5.27
2018-09-20T06:00:40.386Z,5.17
2018-09-20T06:03:11.288Z,5.63
2018-09-20T06:05:41.626Z,5.13
2018-09-20T06:08:12.264Z,4.93
2018-09-20T06:10:42.728Z,6.10
2018-09-20T06:13:13.360Z,5.80
2018-09-20T06:15:44.042Z,5.30
2018-09-20T06:18:14.016Z,5.33
2018-09-20T06:20:43.960Z,5.40
2018-09-20T06:23:14.463Z,5.27
2018-09-20T06:25:45.376Z,5.50
2018-09-20T06:28:16.270Z,5.60
2018-09-20T06:30:49.122Z,5.70
2018-09-20T06:33:19.701Z,5.87
2018-09-20T06:35:50.694Z,5.07
2018-09-20T06:38:22.164Z,5.60
2018-09-20T06:40:52.757Z,5.67
2018-09-20T06:43:23.108Z,5.80
2018-09-20T06:45:54.790Z,5.63
2018-09-20T06:48:25.372Z,4.70
2018-09-20T06:50:57.994Z,4.80
2018-09-20T06:53:28.884Z,5.33
2018-09-20T06:55:58.852Z,4.90
2018-09-20T06:58:29.796Z,5.60
2018-09-20T07:01:00.229Z,5.13
2018-09-20T07:03:30.559Z,4.90
2018-09-20T07:06:01.525Z,5.80
2018-09-20T07:08:31.501Z,4.90
2018-09-20T07:11:01.785Z,5.10
2018-09-20T07:13:32.173Z,5.10
2018-09-20T07:16:02.659Z,5.03
2018-09-20T07:18:33.206Z,4.80
2018-09-20T07:21:03.368Z,5.37
2018-09-20T07:23:35.034Z,5.70
2018-09-20T07:26:05.500Z,5.20
2018-09-20T07:28:36.983Z,5.30
2018-09-20T07:31:07.764Z,4.80
2018-09-20T07:33:39.151Z,5.10
2018-09-20T07:36:10.189Z,5.10
2018-09-20T07:38:40.873Z,4.20
2018-09-20T07:41:11.585Z,5.30
2018-09-20T07:43:41.762Z,4.70
2018-09-20T07:46:12.966Z,4.57
2018-09-20T07:48:43.127Z,4.87
2018-09-20T07:51:13.007Z,4.90
2018-09-20T07:53:42.950Z,5.00
2018-09-20T07:56:14.141Z,4.70
2018-09-20T07:58:44.648Z,5.30
2018-09-20T08:01:14.616Z,4.50
2018-09-20T08:03:44.904Z,4.30
2018-09-20T08:06:15.399Z,4.27
2018-09-20T08:08:45.437Z,4.13
2018-09-20T08:11:15.586Z,4.13
2018-09-20T08:13:45.605Z,4.40
2018-09-20T08:16:15.722Z,4.90
2018-09-20T08:18:45.514Z,4.03
2018-09-20T08:21:15.463Z,4.43
2018-09-20T08:23:45.706Z,4.30
2018-09-20T08:26:26.795Z,4.80
2018-09-20T08:28:58.235Z,4.17
2018-09-20T08:31:29.246Z,4.07
2018-09-20T08:33:59.763Z,4.23
2018-09-20T08:36:30.791Z,3.77
2018-09-20T08:39:00.596Z,3.93
2018-09-20T08:41:30.956Z,3.90
2018-09-20T08:44:01.905Z,3.97
2018-09-20T08:46:31.784Z,3.57
2018-09-20T08:49:01.918Z,4.20
2018-09-20T08:51:31.697Z,3.13
2018-09-20T08:54:02.190Z,4.60
2018-09-20T08:56:32.974Z,3.80
2018-09-20T08:59:03.066Z,3.60
2018-09-20T09:01:33.389Z,4.43
2018-09-20T09:04:03.467Z,4.00
2018-09-20T09:06:33.293Z,4.40
2018-09-20T09:09:02.918Z,3.80
2018-09-20T09:11:33.036Z,3.57
2018-09-20T09:14:03.011Z,3.60
2018-09-20T09:16:33.361Z,3.70
2018-09-20T09:19:03.152Z,3.27
2018-09-20T09:21:33.020Z,3.90
2018-09-20T09:24:03.105Z,3.47
2018-09-20T09:26:33.185Z,3.80
2018-09-20T09:29:03.503Z,3.67
2018-09-20T09:31:33.369Z,3.60
2018-09-20T09:34:03.064Z,3.07
2018-09-20T09:36:32.975Z,4.07
2018-09-20T09:39:03.126Z,3.40
2018-09-20T09:41:32.849Z,3.90
2018-09-20T09:44:02.913Z,2.90
2018-09-20T09:46:32.955Z,4.10
2018-09-20T09:49:02.872Z,3.23
2018-09-20T09:51:32.998Z,3.70
2018-09-20T09:54:02.837Z,3.17
2018-09-20T09:56:32.843Z,4.07
2018-09-20T09:59:02.869Z,3.60
2018-09-20T10:01:33.141Z,3.73
2018-09-20T10:04:03.250Z,3.93
2018-09-20T10:06:33.409Z,4.30
2018-09-20T10:09:03.341Z,4.10
2018-09-20T10:11:33.289Z,3.93
2018-09-20T10:14:03.545Z,3.77
2018-09-20T10:16:33.623Z,3.57
2018-09-20T10:19:03.451Z,3.63
2018-09-20T10:21:33.345Z,4.00
2018-09-20T10:24:03.244Z,4.23
2018-09-20T10:26:33.349Z,4.00
2018-09-20T10:29:03.000Z,3.50
2018-09-20T10:31:32.919Z,2.90
2018-09-20T10:34:03.348Z,3.67
2018-09-20T10:36:34.159Z,3.57
2018-09-20T10:39:05.229Z,3.27
2018-09-20T10:41:36.349Z,3.13
2018-09-20T10:44:07.067Z,3.23
2018-09-20T10:46:37.286Z,2.83
2018-09-20T10:49:07.507Z,2.67
2018-09-20T10:51:37.649Z,3.87
2018-09-20T10:54:07.683Z,3.87
2018-09-20T10:56:38.097Z,3.93
2018-09-20T10:59:08.142Z,3.80
2018-09-20T11:01:37.688Z,4.00
2018-09-20T11:04:08.100Z,4.73
2018-09-20T11:06:38.039Z,3.60
2018-09-20T11:09:10.320Z,3.93
2018-09-20T11:11:40.348Z,4.67
2018-09-20T11:14:10.106Z,4.60
2018-09-20T11:16:40.297Z,3.93
2018-09-20T11:19:10.096Z,3.80
2018-09-20T11:21:40.102Z,4.03
2018-09-20T11:24:10.303Z,4.17
2018-09-20T11:26:40.174Z,4.13
2018-09-20T11:29:10.277Z,3.80
2018-09-20T11:31:40.286Z,4.60
2018-09-20T11:34:10.722Z,4.40
2018-09-20T11:36:40.808Z,3.73
2018-09-20T11:39:12.782Z,4.13
2018-09-20T11:41:42.883Z,4.03
2018-09-20T11:44:12.961Z,4.50
2018-09-20T11:46:43.965Z,4.03
2018-09-20T11:49:14.213Z,4.40
2018-09-20T11:51:44.123Z,4.30
2018-09-20T11:54:14.329Z,4.47
2018-09-20T11:56:44.409Z,4.50
2018-09-20T11:59:14.316Z,4.30
2018-09-20T12:01:44.362Z,4.30
2018-09-20T12:04:14.348Z,3.77
2018-09-20T12:06:45.158Z,4.17
2018-09-20T12:09:15.370Z,4.40
2018-09-20T12:11:45.385Z,4.27
2018-09-20T12:14:15.248Z,4.40
2018-09-20T12:16:45.200Z,4.20
2018-09-20T12:19:15.159Z,3.97
2018-09-20T12:21:45.424Z,3.80
2018-09-20T12:24:15.562Z,4.43
2018-09-20T12:26:45.689Z,3.77
2018-09-20T12:29:15.640Z,3.53
2018-09-20T12:31:45.220Z,3.17
2018-09-20T12:34:15.341Z,4.10
2018-09-20T12:36:45.344Z,3.60
2018-09-20T12:39:15.736Z,4.27
2018-09-20T12:41:45.750Z,3.33
2018-09-20T12:44:15.387Z,3.57
2018-09-20T12:46:45.602Z,3.10
2018-09-20T12:49:15.398Z,3.77
2018-09-20T12:51:45.344Z,3.30
2018-09-20T12:54:15.271Z,3.90
2018-09-20T12:56:45.176Z,3.40
2018-09-20T12:59:14.993Z,3.23
2018-09-20T13:01:45.154Z,3.73
2018-09-20T13:04:15.301Z,3.50
2018-09-20T13:06:48.821Z,3.97
2018-09-20T13:09:18.528Z,3.80
2018-09-20T13:11:48.234Z,3.60
2018-09-20T13:14:18.035Z,3.07
2018-09-20T13:16:47.732Z,3.80
2018-09-20T13:19:17.666Z,3.40
2018-09-20T13:21:47.750Z,3.77
2018-09-20T13:24:17.652Z,3.50
2018-09-20T13:26:48.300Z,3.60
2018-09-20T13:29:18.471Z,4.13
2018-09-20T13:31:48.077Z,4.00
2018-09-20T13:34:17.794Z,3.63
2018-09-20T13:36:47.585Z,3.40
2018-09-20T13:39:18.047Z,3.57
2018-09-20T13:41:48.153Z,3.07
2018-09-20T13:44:18.130Z,3.37
2018-09-20T13:46:47.873Z,3.73
2018-09-20T13:49:17.713Z,4.37
2018-09-20T13:51:47.456Z,4.50
2018-09-20T13:54:17.202Z,4.43
2018-09-20T13:56:48.643Z,4.50
2018-09-20T13:59:18.664Z,4.63
2018-09-20T14:01:48.501Z,4.23
2018-09-20T14:04:18.255Z,4.10
2018-09-20T14:06:48.427Z,4.50
2018-09-20T14:09:18.431Z,4.30
2018-09-20T14:11:48.278Z,4.57
2018-09-20T14:14:19.244Z,4.60
2018-09-20T14:16:52.988Z,3.97
2018-09-20T14:19:23.329Z,4.80
2018-09-20T14:21:58.591Z,3.93
2018-09-20T14:24:32.653Z,4.67
2018-09-20T14:27:04.561Z,4.20
2018-09-20T14:29:34.850Z,3.90
2018-09-20T14:32:05.079Z,4.40
2018-09-20T14:34:35.287Z,4.57
2018-09-20T14:37:05.527Z,4.03
2018-09-20T14:39:35.620Z,3.90
2018-09-20T14:42:06.241Z,4.20
2018-09-20T14:44:36.544Z,3.43
2018-09-20T14:47:07.037Z,3.77
2018-09-20T14:49:37.251Z,4.20
2018-09-20T14:52:07.670Z,3.50
2018-09-20T14:54:37.735Z,3.90
2018-09-20T14:57:07.669Z,3.70
2018-09-20T14:59:38.520Z,3.03
2018-09-20T15:02:08.593Z,3.43
2018-09-20T15:04:38.524Z,4.20
2018-09-20T15:07:09.603Z,3.27
2018-09-20T15:09:39.903Z,3.73
2018-09-20T15:12:10.136Z,3.27
2018-09-20T15:14:42.693Z,3.43
2018-09-20T15:17:12.751Z,4.07
2018-09-20T15:19:42.952Z,3.40
2018-09-20T15:22:13.201Z,4.97
2018-09-20T15:24:43.170Z,3.83
2018-09-20T15:27:13.726Z,3.73
2018-09-20T15:29:43.520Z,3.10
2018-09-20T15:32:13.130Z,3.50
2018-09-20T15:34:43.062Z,3.00
2018-09-20T15:37:13.013Z,3.30
2018-09-20T15:39:42.944Z,3.90
2018-09-20T15:42:13.305Z,3.80
2018-09-20T15:44:44.333Z,3.33
2018-09-20T15:47:14.322Z,3.13
2018-09-20T15:49:44.382Z,2.83
2018-09-20T15:52:14.280Z,2.87
2018-09-20T15:54:44.527Z,3.77
2018-09-20T15:57:14.371Z,3.07
2018-09-20T15:59:48.329Z,3.43
2018-09-20T16:02:20.627Z,3.30
2018-09-20T16:04:51.151Z,3.17
2018-09-20T16:07:23.325Z,3.40
2018-09-20T16:09:54.265Z,3.27
2018-09-20T16:12:30.487Z,3.50
2018-09-20T16:15:01.175Z,4.30
2018-09-20T16:17:31.667Z,3.50
2018-09-20T16:20:02.003Z,3.60
2018-09-20T16:22:31.999Z,3.43
2018-09-20T16:25:02.161Z,3.80
2018-09-20T16:27:32.256Z,4.13
2018-09-20T16:32:18.420Z,3.73
2018-09-20T16:36:03.383Z,3.40
2018-09-20T16:38:40.925Z,3.60
2018-09-20T16:41:15.680Z,4.10
2018-09-20T16:43:46.519Z,4.20
2018-09-20T16:46:17.337Z,3.67
2018-09-20T16:48:48.265Z,3.93
2018-09-20T16:51:19.711Z,3.97
2018-09-20T16:53:51.223Z,3.53
2018-09-20T16:56:21.668Z,3.83
2018-09-20T16:58:53.696Z,3.17
2018-09-20T17:01:24.480Z,3.63
2018-09-20T17:03:55.040Z,3.83
2018-09-20T17:06:26.223Z,3.70
2018-09-20T17:08:57.020Z,3.40
2018-09-20T17:11:28.309Z,3.10
2018-09-20T17:13:58.809Z,3.03
2018-09-20T17:16:28.681Z,3.17
2018-09-20T17:18:58.805Z,3.47
2018-09-20T17:21:28.343Z,3.67
2018-09-20T17:23:57.877Z,3.60
2018-09-20T17:26:27.247Z,3.23
2018-09-20T17:28:56.730Z,3.77
2018-09-20T17:31:25.973Z,3.73
2018-09-20T17:33:55.099Z,3.83
2018-09-20T17:36:24.894Z,3.93
2018-09-20T17:38:54.949Z,3.47
2018-09-20T17:41:27.494Z,3.37
2018-09-20T17:43:58.945Z,3.27
2018-09-20T17:46:28.196Z,3.40
2018-09-20T17:48:57.337Z,3.40
2018-09-20T17:51:27.067Z,3.83
2018-09-20T17:53:57.519Z,3.60
2018-09-20T17:56:27.443Z,3.70
2018-09-20T17:58:57.383Z,4.00
2018-09-20T18:01:26.961Z,3.40
2018-09-20T18:03:56.323Z,3.37
2018-09-20T18:06:25.981Z,3.53
2018-09-20T18:08:55.255Z,3.40
2018-09-20T18:11:24.743Z,3.30
2018-09-20T18:13:54.259Z,3.67
2018-09-20T18:16:23.710Z,3.33
2018-09-20T18:18:53.414Z,3.53
2018-09-20T18:21:22.707Z,3.57
2018-09-20T18:23:52.272Z,4.30
2018-09-20T18:26:21.601Z,3.77
2018-09-20T18:28:51.699Z,4.37
2018-09-20T18:31:22.204Z,3.93
2018-09-20T18:33:54.984Z,4.00
2018-09-20T18:36:24.760Z,4.60
2018-09-20T18:38:55.032Z,4.20
2018-09-20T18:41:31.853Z,3.93
2018-09-20T18:44:01.809Z,3.97
2018-09-20T18:46:31.743Z,3.50
2018-09-20T18:49:01.387Z,4.13
2018-09-20T18:51:31.043Z,4.80
2018-09-20T18:54:00.713Z,5.20
2018-09-20T18:56:30.652Z,4.97
2018-09-20T18:59:02.375Z,4.83
2018-09-20T19:01:32.199Z,4.37
2018-09-20T19:04:01.845Z,3.87
2018-09-20T19:06:31.638Z,4.10
2018-09-20T19:09:01.305Z,4.00
2018-09-20T19:11:30.783Z,3.73
2018-09-20T19:14:00.275Z,3.43
2018-09-20T19:16:30.088Z,3.97
2018-09-20T19:19:00.047Z,4.37
2018-09-20T19:21:29.608Z,4.10
2018-09-20T19:23:59.623Z,4.40
2018-09-20T19:26:29.400Z,3.60
2018-09-20T19:28:59.388Z,3.80
2018-09-20T19:31:28.918Z,3.63
2018-09-20T19:33:58.797Z,3.87
2018-09-20T19:36:28.675Z,4.37
2018-09-20T19:38:58.512Z,3.87
2018-09-20T19:41:28.156Z,3.77
2018-09-20T19:43:57.583Z,3.33
2018-09-20T19:46:27.594Z,3.17
2018-09-20T19:48:57.832Z,3.30
2018-09-20T19:51:27.785Z,4.80
2018-09-20T19:53:57.889Z,3.13
2018-09-20T19:56:27.570Z,3.50
2018-09-20T19:58:57.445Z,3.90
2018-09-20T20:01:26.867Z,4.00
2018-09-20T20:03:57.139Z,3.63
2018-09-20T20:06:27.723Z,3.70
2018-09-20T20:08:57.419Z,3.60
2018-09-20T20:11:27.387Z,3.53
2018-09-20T20:14:15.132Z,3.63
2018-09-20T20:16:47.882Z,3.93
2018-09-20T20:19:20.992Z,3.73
2018-09-20T20:21:50.711Z,3.13
2018-09-20T20:24:20.335Z,3.23
2018-09-20T20:26:50.262Z,3.63
2018-09-20T20:29:20.138Z,4.27
2018-09-20T20:31:50.459Z,3.57
2018-09-20T20:34:20.393Z,3.37
2018-09-20T20:36:50.512Z,3.30
2018-09-20T20:39:20.336Z,3.67
2018-09-20T20:41:50.161Z,3.33
2018-09-20T20:44:19.494Z,3.30
2018-09-20T20:46:49.040Z,3.80
2018-09-20T20:49:18.532Z,3.30
2018-09-20T20:51:48.104Z,3.40
2018-09-20T20:54:17.793Z,3.07
2018-09-20T20:56:54.250Z,3.97
2018-09-20T20:59:24.838Z,4.13
2018-09-20T21:01:54.607Z,3.53
2018-09-20T21:04:24.259Z,3.67
2018-09-20T21:06:54.226Z,3.23
2018-09-20T21:09:23.863Z,3.80
2018-09-20T21:11:53.464Z,3.43
2018-09-20T21:14:22.909Z,3.53
2018-09-20T21:16:52.623Z,3.43
2018-09-20T21:19:22.262Z,3.50
2018-09-20T21:21:51.691Z,3.67
2018-09-20T21:24:21.237Z,3.57
2018-09-20T21:26:50.654Z,3.43
2018-09-20T21:29:20.104Z,3.73
2018-09-20T21:31:50.221Z,2.90
2018-09-20T21:34:19.757Z,3.30
2018-09-20T21:36:49.441Z,3.63
2018-09-20T21:39:18.760Z,3.40
2018-09-20T21:41:48.299Z,3.70
2018-09-20T21:44:17.921Z,3.70
2018-09-20T21:46:47.478Z,3.97
2018-09-20T21:49:17.235Z,3.60
2018-09-20T21:51:47.102Z,3.57
2018-09-20T21:54:16.423Z,3.43
2018-09-20T21:56:46.155Z,3.43
2018-09-20T21:59:15.745Z,3.53
2018-09-20T22:01:50.560Z,3.50
2018-09-20T22:04:20.345Z,4.47
2018-09-20T22:06:49.742Z,3.37
2018-09-20T22:09:19.462Z,4.30
2018-09-20T22:11:48.926Z,3.63
2018-09-20T22:14:18.355Z,4.20
2018-09-20T22:16:47.874Z,3.93
2018-09-20T22:19:17.411Z,3.97
2018-09-20T22:21:46.884Z,3.90
2018-09-20T22:24:16.655Z,3.97
2018-09-20T22:26:46.081Z,4.17
2018-09-20T22:29:15.290Z,3.80
2018-09-20T22:31:44.996Z,3.90
2018-09-20T22:34:14.454Z,3.53
2018-09-20T22:37:32.743Z,3.70
2018-09-20T22:40:02.343Z,4.20
2018-09-20T22:42:31.827Z,3.87
2018-09-20T22:45:01.879Z,4.00
2018-09-20T22:47:31.818Z,3.80
2018-09-20T22:50:01.124Z,4.00
2018-09-20T22:52:30.583Z,4.00
2018-09-20T22:55:00.110Z,3.87
2018-09-20T22:57:29.432Z,3.80
2018-09-20T22:59:58.839Z,5.00
2018-09-20T23:02:28.097Z,4.30
2018-09-20T23:05:00.744Z,3.67
2018-09-20T23:07:32.900Z,3.40
2018-09-20T23:10:05.736Z,3.67
2018-09-20T23:12:38.731Z,3.33
2018-09-20T23:15:10.843Z,4.00
2018-09-20T23:17:43.254Z,3.90
2018-09-20T23:20:14.022Z,3.97
2018-09-20T23:22:43.803Z,4.57
2018-09-20T23:25:13.213Z,3.60
2018-09-20T23:27:42.818Z,4.43
2018-09-20T23:30:12.250Z,4.20
2018-09-20T23:32:41.504Z,4.17
2018-09-20T23:35:10.978Z,4.13
2018-09-20T23:37:40.190Z,4.10
2018-09-20T23:40:09.441Z,4.27
2018-09-20T23:42:39.506Z,4.07
2018-09-20T23:45:09.007Z,4.10
2018-09-20T23:47:38.380Z,4.07
2018-09-20T23:50:07.834Z,4.47
2018-09-20T23:52:37.184Z,3.57
2018-09-20T23:55:06.776Z,3.97
2018-09-20T23:57:36.356Z,4.00
